Time;durP1;ratioP1;P1;durP2;ratioP2;P2;SDS_P1;SDS_P2;PMS_P1;PMS_P2;Temp;Humidity;BMP_temperature;BMP_pressure;BME280_temperature;BME280_humidity;BME280_pressure;Samples;Min_cycle;Max_cycle;Signal;HPM_P1;HPM_P2
2022/03/19 00:01:16;;;;;;;10.13;7.50;;;;;;;0.72;78.57;101772.91;5046195;28;20284;-63
2022/03/19 00:03:43;;;;;;;8.83;7.93;;;;;;;0.73;78.63;101771.25;5041623;28;20200;-64
2022/03/19 00:06:09;;;;;;;8.60;7.23;;;;;;;0.73;78.69;101762.03;5035636;28;20205;-64
2022/03/19 00:08:37;;;;;;;8.80;8.00;;;;;;;0.74;78.73;101765.41;5043080;28;20710;-63
2022/03/19 00:11:04;;;;;;;8.17;7.43;;;;;;;0.73;78.65;101762.03;5040165;28;20205;-63
2022/03/19 00:13:31;;;;;;;9.07;7.33;;;;;;;0.74;78.51;101761.22;5033410;28;20197;-64
2022/03/19 00:15:58;;;;;;;8.47;7.67;;;;;;;0.66;78.65;101742.31;5044469;28;20217;-64
2022/03/19 00:18:27;;;;;;;7.07;6.43;;;;;;;0.74;78.96;101760.38;5046617;28;20292;-64
2022/03/19 00:20:54;;;;;;;8.83;7.13;;;;;;;0.66;79.23;101757.47;5040825;28;20196;-64
2022/03/19 00:23:21;;;;;;;7.33;6.60;;;;;;;0.56;79.30;101769.56;5047444;28;20201;-65
2022/03/19 00:25:48;;;;;;;9.23;7.47;;;;;;;0.38;79.41;101765.41;5046857;28;20286;-65
2022/03/19 00:28:18;;;;;;;7.50;6.80;;;;;;;0.17;80.33;101764.34;5045632;28;20246;-66
2022/03/19 00:30:46;;;;;;;8.83;8.00;;;;;;;0.08;81.06;101752.91;5049058;28;20197;-65
2022/03/19 00:33:13;;;;;;;7.13;6.37;;;;;;;0.19;81.20;101751.81;5038178;28;20201;-64
2022/03/19 00:35:42;;;;;;;8.23;7.20;;;;;;;0.26;81.42;101756.38;5038058;28;20704;-65
2022/03/19 00:38:09;;;;;;;8.40;7.40;;;;;;;0.31;81.63;101748.22;5043158;28;20641;-64
2022/03/19 00:40:36;;;;;;;8.30;7.33;;;;;;;0.34;81.71;101757.59;5044911;28;20203;-65
2022/03/19 00:43:03;;;;;;;9.20;6.77;;;;;;;0.32;81.90;101761.72;5045111;28;20219;-64
2022/03/19 00:45:30;;;;;;;11.33;7.70;;;;;;;0.32;82.65;101759.19;5042435;28;20209;-65
2022/03/19 00:47:57;;;;;;;8.40;7.50;;;;;;;0.25;83.02;101731.94;5043653;28;20683;-65
2022/03/19 00:50:24;;;;;;;7.67;6.87;;;;;;;0.38;82.75;101744.34;5040778;28;20292;-65
2022/03/19 00:52:52;;;;;;;6.90;6.33;;;;;;;0.41;82.78;101752.06;5039721;28;20205;-65
2022/03/19 00:55:19;;;;;;;7.60;6.90;;;;;;;0.36;82.98;101730.75;5048897;28;20812;-65
2022/03/19 00:57:48;;;;;;;7.33;6.80;;;;;;;0.47;83.11;101749.81;5053837;28;20232;-65
2022/03/19 01:00:17;;;;;;;7.47;6.87;;;;;;;0.53;83.15;101750.09;5059804;28;20235;-65
2022/03/19 01:02:45;;;;;;;7.17;6.57;;;;;;;0.43;83.82;101747.94;5057718;28;20581;-64
2022/03/19 01:05:13;;;;;;;6.77;6.13;;;;;;;0.44;83.84;101740.44;5060469;28;20224;-64
2022/03/19 01:07:42;;;;;;;8.33;7.00;;;;;;;0.52;83.89;101738.28;5059912;28;20226;-64
2022/03/19 01:10:13;;;;;;;7.20;6.60;;;;;;;0.49;84.75;101740.66;5058532;28;20549;-64
2022/03/19 01:12:40;;;;;;;7.17;6.47;;;;;;;0.50;84.65;101749.97;5066939;28;20238;-64
2022/03/19 01:15:08;;;;;;;8.23;7.53;;;;;;;0.52;84.75;101740.78;5062178;28;20284;-64
2022/03/19 01:17:35;;;;;;;6.70;6.20;;;;;;;0.53;84.54;101742.53;5065724;28;20717;-64
2022/03/19 01:20:02;;;;;;;7.47;6.77;;;;;;;0.57;84.47;101736.84;5059380;28;20287;-64
2022/03/19 01:22:30;;;;;;;6.90;6.30;;;;;;;0.58;85.08;101727.63;5051775;28;20200;-64
2022/03/19 01:24:59;;;;;;;12.27;7.97;;;;;;;0.62;85.02;101730.34;5066183;28;20204;-65
2022/03/19 01:27:27;;;;;;;12.03;10.40;;;;;;;0.28;84.37;101712.75;5061890;28;20272;-64
2022/03/19 01:29:54;;;;;;;8.80;7.80;;;;;;;0.41;84.66;101741.97;5055631;28;20740;-64
2022/03/19 01:32:21;;;;;;;11.03;8.90;;;;;;;0.36;84.67;101728.25;5054511;28;20203;-64
2022/03/19 01:34:48;;;;;;;11.73;9.33;;;;;;;0.23;85.45;101728.44;5060569;28;20200;-64
2022/03/19 01:37:15;;;;;;;8.03;7.33;;;;;;;0.15;86.16;101724.69;5053916;28;20279;-65
2022/03/19 01:39:42;;;;;;;10.00;8.00;;;;;;;0.15;86.30;101727.22;5061186;28;20227;-65
2022/03/19 01:42:09;;;;;;;8.73;7.83;;;;;;;0.08;86.84;101738.66;5057866;28;20291;-64
2022/03/19 01:44:37;;;;;;;6.37;5.97;;;;;;;0.02;86.77;101732.44;5056746;28;20220;-64
2022/03/19 01:47:07;;;;;;;7.63;6.90;;;;;;;-0.01;86.90;101726.47;5058674;28;20279;-64
2022/03/19 01:49:35;;;;;;;6.50;6.00;;;;;;;-0.17;86.77;101726.50;5065052;28;20706;-64
2022/03/19 01:52:01;;;;;;;8.37;7.13;;;;;;;-0.08;87.30;101732.00;5057703;28;20288;-64
2022/03/19 01:54:32;;;;;;;7.40;6.80;;;;;;;-0.13;88.12;101733.41;5059691;28;20679;-63
2022/03/19 01:57:01;;;;;;;9.20;7.50;;;;;;;-0.16;88.87;101733.25;5062479;28;20718;-64
2022/03/19 01:59:33;;;;;;;8.27;7.57;;;;;;;-0.12;88.81;101734.28;5060693;28;20205;-64
2022/03/19 02:02:03;;;;;;;7.50;6.80;;;;;;;-0.06;88.62;101740.50;5061056;28;20628;-64
2022/03/19 02:04:30;;;;;;;11.57;7.13;;;;;;;-0.07;88.55;101737.91;5059259;28;20219;-64
2022/03/19 02:06:57;;;;;;;7.37;6.67;;;;;;;-0.07;88.02;101732.88;5060392;28;20193;-63
2022/03/19 02:09:24;;;;;;;8.33;7.63;;;;;;;-0.14;87.87;101719.09;5060211;28;20290;-63
2022/03/19 02:11:51;;;;;;;9.20;8.13;;;;;;;-0.01;87.60;101733.16;5060042;28;20208;-64
2022/03/19 02:14:18;;;;;;;9.13;8.30;;;;;;;0.01;87.15;101731.59;5060719;28;20205;-64
2022/03/19 02:16:47;;;;;;;10.60;8.60;;;;;;;0.06;86.40;101729.31;5056046;28;20220;-64
2022/03/19 02:19:16;;;;;;;10.97;8.63;;;;;;;0.10;85.88;101732.03;5053796;28;20292;-64
2022/03/19 02:21:45;;;;;;;12.77;8.53;;;;;;;0.16;85.49;101736.53;5061288;28;20201;-64
2022/03/19 02:26:59;;;;;;;13.67;9.70;;;;;;;0.15;84.67;101737.31;5065236;28;20196;-64
2022/03/19 02:29:27;;;;;;;13.40;9.83;;;;;;;0.05;84.81;101722.50;5059593;28;20292;-64
2022/03/19 02:31:55;;;;;;;16.47;11.47;;;;;;;0.10;84.97;101731.19;5062781;28;20191;-64
2022/03/19 02:34:22;;;;;;;13.03;10.33;;;;;;;0.09;84.91;101720.22;5063662;28;20584;-64
2022/03/19 02:36:49;;;;;;;12.93;10.13;;;;;;;0.08;84.69;101727.72;5067250;28;20212;-63
2022/03/19 02:39:19;;;;;;;15.93;10.60;;;;;;;-0.32;84.48;101654.31;5069196;28;20200;-63
2022/03/19 02:41:49;;;;;;;19.83;11.73;;;;;;;0.04;84.56;101724.16;5057360;28;20283;-64
2022/03/19 02:44:18;;;;;;;18.07;11.27;;;;;;;0.03;84.83;101724.09;5068457;28;20739;-64
2022/03/19 02:46:47;;;;;;;18.20;10.80;;;;;;;-0.03;85.21;101728.03;5061994;28;20741;-64
2022/03/19 02:49:15;;;;;;;11.93;9.97;;;;;;;-0.14;85.11;101701.44;5067625;28;20200;-64
2022/03/19 02:51:43;;;;;;;11.70;9.90;;;;;;;-0.07;85.32;101713.56;5068154;28;20200;-64
2022/03/19 02:54:12;;;;;;;14.13;10.10;;;;;;;-0.01;86.00;101723.09;5062687;28;20295;-64
2022/03/19 02:56:43;;;;;;;10.93;9.33;;;;;;;0.05;85.78;101717.47;5056895;28;20320;-63
2022/03/19 02:59:12;;;;;;;9.83;8.93;;;;;;;0.07;85.75;101731.00;5042417;28;20285;-64
2022/03/19 03:01:40;;;;;;;12.57;9.50;;;;;;;-0.04;86.09;101736.41;5043310;28;20203;-63
2022/03/19 03:04:07;;;;;;;17.63;9.93;;;;;;;-0.08;86.65;101726.97;5043495;28;20746;-64
2022/03/19 03:06:36;;;;;;;11.07;9.97;;;;;;;-0.19;87.13;101723.03;5042559;28;20235;-64
2022/03/19 03:09:03;;;;;;;14.80;9.67;;;;;;;-0.29;86.92;101745.19;5043300;28;20193;-64
2022/03/19 03:11:31;;;;;;;13.33;10.00;;;;;;;-0.28;87.42;101735.19;5043979;28;20193;-64
2022/03/19 03:14:00;;;;;;;15.43;10.00;;;;;;;-0.21;87.29;101727.13;5042451;28;20251;-64
2022/03/19 03:16:27;;;;;;;11.73;9.00;;;;;;;-0.13;87.14;101738.44;5045505;28;20203;-64
2022/03/19 03:18:56;;;;;;;15.10;10.43;;;;;;;-0.07;86.86;101735.41;5047131;28;20204;-63
2022/03/19 03:21:23;;;;;;;12.57;9.40;;;;;;;0.00;86.34;101734.91;5044664;28;20209;-64
2022/03/19 03:23:50;;;;;;;13.47;10.60;;;;;;;0.00;86.44;101730.72;5045777;28;20287;-63
2022/03/19 03:26:17;;;;;;;16.23;10.30;;;;;;;-0.03;86.55;101735.59;5044865;28;20216;-63
2022/03/19 03:28:44;;;;;;;17.07;9.57;;;;;;;-0.10;86.69;101728.53;5035460;28;20287;-64
2022/03/19 03:31:12;;;;;;;12.17;9.23;;;;;;;-0.05;86.78;101732.16;5039854;28;20284;-64
2022/03/19 03:33:39;;;;;;;10.23;9.07;;;;;;;-0.10;87.38;101727.69;5042479;28;20201;-64
2022/03/19 03:36:07;;;;;;;12.00;9.80;;;;;;;-0.15;88.62;101727.44;5052732;28;20204;-64
2022/03/19 03:38:33;;;;;;;15.07;10.77;;;;;;;-0.16;89.04;101729.91;5050480;28;20224;-64
2022/03/19 03:41:00;;;;;;;10.63;9.57;;;;;;;-0.11;89.05;101731.84;5050266;28;20304;-64
2022/03/19 03:43:27;;;;;;;11.53;9.80;;;;;;;-0.06;88.94;101729.53;5050280;28;20211;-64
2022/03/19 03:45:55;;;;;;;13.10;10.00;;;;;;;-0.10;89.24;101733.56;5032787;28;20229;-64
2022/03/19 03:48:23;;;;;;;12.83;10.30;;;;;;;-0.05;89.16;101732.16;5039002;28;20293;-64
2022/03/19 03:50:52;;;;;;;10.17;9.13;;;;;;;-0.07;89.50;101718.63;5037095;28;20208;-63
2022/03/19 03:53:21;;;;;;;10.27;9.03;;;;;;;-0.02;89.28;101722.22;5049115;28;20300;-63
2022/03/19 03:55:48;;;;;;;15.57;10.50;;;;;;;0.03;89.38;101729.16;5038309;28;20208;-63
2022/03/19 03:58:15;;;;;;;12.33;10.60;;;;;;;0.02;90.08;101734.97;5032776;28;20235;-63
2022/03/19 04:00:42;;;;;;;10.27;9.00;;;;;;;-0.03;90.61;101739.78;5037479;28;20232;-63
2022/03/19 04:03:09;;;;;;;12.03;9.53;;;;;;;-0.21;90.58;101742.25;5049448;28;20225;-65
2022/03/19 04:05:37;;;;;;;19.07;9.80;;;;;;;-0.25;91.00;101747.06;5043351;28;20200;-63
2022/03/19 04:08:05;;;;;;;11.07;9.93;;;;;;;-0.20;91.10;101730.53;5037897;28;20667;-63
2022/03/19 04:10:32;;;;;;;15.53;10.53;;;;;;;-0.15;90.08;101735.00;5038163;28;20266;-63
2022/03/19 04:13:00;;;;;;;13.00;10.37;;;;;;;-0.11;89.91;101731.84;5043500;28;20608;-63
2022/03/19 04:15:27;;;;;;;17.53;11.43;;;;;;;-0.06;89.60;101735.47;5047282;28;20284;-62
2022/03/19 04:17:54;;;;;;;20.97;14.07;;;;;;;-0.01;89.43;101729.00;5041600;28;20214;-64
2022/03/19 04:20:22;;;;;;;24.37;12.77;;;;;;;0.03;89.08;101735.06;5047939;28;20303;-64
2022/03/19 04:22:51;;;;;;;17.67;12.30;;;;;;;0.06;89.40;101731.81;5043607;28;20283;-64
2022/03/19 04:25:19;;;;;;;21.03;11.77;;;;;;;0.03;89.32;101724.09;5048690;28;20731;-64
2022/03/19 04:27:48;;;;;;;15.67;10.80;;;;;;;0.11;89.24;101736.28;5035819;28;20292;-65
2022/03/19 04:30:17;;;;;;;15.17;10.73;;;;;;;0.11;89.41;101738.81;5044221;28;20666;-62
2022/03/19 04:32:45;;;;;;;16.07;11.80;;;;;;;0.05;89.34;101730.09;5036621;28;20201;-62
2022/03/19 04:38:02;;;;;;;13.80;11.33;;;;;;;0.03;91.00;101739.25;5039211;28;20231;-63
2022/03/19 04:40:29;;;;;;;17.17;13.20;;;;;;;-0.02;91.04;101731.44;5041663;28;20201;-62
2022/03/19 04:42:56;;;;;;;22.03;12.83;;;;;;;0.02;91.10;101737.50;5047383;28;20205;-62
2022/03/19 04:45:24;;;;;;;16.90;11.90;;;;;;;-0.01;91.30;101744.13;5041880;28;20287;-63
2022/03/19 04:47:51;;;;;;;15.83;11.83;;;;;;;-0.10;91.88;101733.56;5040063;28;20670;-62
2022/03/19 04:50:18;;;;;;;20.60;13.30;;;;;;;-0.02;91.91;101741.53;5045270;28;20287;-62
2022/03/19 04:52:45;;;;;;;14.93;11.40;;;;;;;-0.05;92.13;101744.75;5038934;28;20200;-63
2022/03/19 04:55:14;;;;;;;15.00;11.47;;;;;;;-0.04;92.16;101738.94;5034256;28;20315;-63
2022/03/19 04:57:41;;;;;;;17.07;12.60;;;;;;;-0.10;92.32;101748.69;5038000;28;20608;-62
2022/03/19 05:00:10;;;;;;;15.80;11.33;;;;;;;-0.07;92.38;101743.84;5041203;28;20209;-62
2022/03/19 05:02:38;;;;;;;18.13;13.43;;;;;;;-0.21;92.81;101736.34;5040301;28;20666;-63
2022/03/19 05:05:05;;;;;;;14.90;12.43;;;;;;;-0.12;93.17;101750.28;5039235;28;20293;-63
2022/03/19 05:07:35;;;;;;;19.60;12.07;;;;;;;-0.05;92.75;101746.41;5036958;28;20276;-63
2022/03/19 05:12:48;;;;;;;19.57;14.40;;;;;;;-0.03;92.03;101750.72;5041205;28;20627;-62
2022/03/19 05:15:16;;;;;;;20.17;13.27;;;;;;;0.02;91.37;101747.59;5043239;28;20573;-63
2022/03/19 05:17:44;;;;;;;21.70;13.10;;;;;;;0.10;91.56;101753.88;5046477;28;20220;-63
2022/03/19 05:20:12;;;;;;;17.67;11.93;;;;;;;0.10;91.34;101736.22;5041744;28;20197;-63
2022/03/19 05:22:39;;;;;;;15.60;10.73;;;;;;;0.21;91.05;101755.25;5047405;28;20203;-63
2022/03/19 05:25:06;;;;;;;20.13;11.50;;;;;;;0.16;91.01;101731.47;5041790;28;20206;-63
2022/03/19 05:27:34;;;;;;;11.90;10.70;;;;;;;0.32;90.83;101744.91;5044276;28;20209;-62
2022/03/19 05:30:02;;;;;;;12.80;10.93;;;;;;;0.37;90.74;101750.16;5045266;28;20217;-62
2022/03/19 05:32:29;;;;;;;12.90;10.60;;;;;;;0.40;90.87;101747.78;5038332;28;20205;-63
2022/03/19 05:34:56;;;;;;;13.40;11.43;;;;;;;0.38;91.30;101744.34;5042389;28;20574;-63
2022/03/19 05:37:23;;;;;;;11.60;9.73;;;;;;;0.37;90.93;101742.59;5037743;28;20283;-63
2022/03/19 05:39:50;;;;;;;10.60;9.47;;;;;;;0.29;90.23;101738.84;5038382;28;20838;-63
2022/03/19 05:42:17;;;;;;;13.67;10.20;;;;;;;0.39;90.72;101756.13;5036213;28;20324;-63
2022/03/19 05:44:44;;;;;;;11.90;10.70;;;;;;;0.40;90.19;101757.88;5038365;28;20669;-63
2022/03/19 05:47:13;;;;;;;14.47;10.33;;;;;;;0.47;89.93;101749.81;5046728;28;20197;-63
2022/03/19 05:49:40;;;;;;;12.30;9.80;;;;;;;0.53;89.69;101752.63;5039256;28;20204;-63
2022/03/19 05:52:09;;;;;;;10.40;9.47;;;;;;;0.56;88.96;101752.78;5043406;28;20284;-64
2022/03/19 05:54:36;;;;;;;10.43;9.50;;;;;;;0.50;89.12;101743.25;5040385;28;20205;-64
2022/03/19 05:57:14;;;;;;;11.63;9.93;;;;;;;0.48;89.32;101733.91;5047647;28;20225;-66
2022/03/19 05:59:41;;;;;;;11.13;9.43;;;;;;;0.47;89.97;101747.28;5040269;28;20280;-64
2022/03/19 06:02:08;;;;;;;10.73;9.13;;;;;;;0.51;89.66;101742.47;5036636;28;20197;-64
2022/03/19 06:04:38;;;;;;;12.77;11.43;;;;;;;0.58;89.98;101741.13;5035613;28;20721;-64
2022/03/19 06:07:05;;;;;;;13.63;9.87;;;;;;;0.65;89.97;101735.53;5044389;28;20271;-64
2022/03/19 06:09:32;;;;;;;12.43;11.10;;;;;;;0.71;89.30;101740.03;5039498;28;20194;-64
2022/03/19 06:11:59;;;;;;;13.63;9.90;;;;;;;0.71;89.52;101724.88;5038372;28;20208;-64
2022/03/19 06:14:26;;;;;;;11.83;9.43;;;;;;;0.80;90.29;101731.22;5052555;28;20245;-65
2022/03/19 06:16:53;;;;;;;10.87;9.10;;;;;;;0.95;90.47;101742.00;5054073;28;20212;-64
2022/03/19 06:19:20;;;;;;;12.63;10.10;;;;;;;0.92;90.08;101714.09;5047725;28;20216;-64
2022/03/19 06:21:48;;;;;;;13.23;9.20;;;;;;;1.17;89.04;101738.78;5050473;28;20198;-64
2022/03/19 06:24:15;;;;;;;10.53;9.43;;;;;;;1.28;87.98;101739.28;5041676;28;20232;-64
2022/03/19 06:26:42;;;;;;;16.50;10.70;;;;;;;1.39;89.35;101745.69;5047098;28;20200;-65
2022/03/19 06:29:09;;;;;;;10.77;9.13;;;;;;;1.45;88.92;101735.84;5044813;28;20198;-64
2022/03/19 06:31:36;;;;;;;9.83;8.93;;;;;;;1.67;86.27;101743.56;5045865;28;20210;-65
2022/03/19 06:34:03;;;;;;;10.90;9.90;;;;;;;1.71;85.10;101747.94;5036930;28;20216;-65
2022/03/19 06:39:16;;;;;;;14.17;10.20;;;;;;;2.23;85.33;101750.13;5047667;28;20277;-66
2022/03/19 06:41:43;;;;;;;12.30;10.90;;;;;;;2.44;83.39;101748.44;5038653;28;20196;-66
2022/03/19 06:44:09;;;;;;;11.67;10.33;;;;;;;2.59;79.74;101749.03;5054232;28;20728;-66
2022/03/19 06:46:36;;;;;;;11.47;10.37;;;;;;;2.76;78.88;101750.56;5045553;28;20581;-67
2022/03/19 06:49:03;;;;;;;9.77;8.90;;;;;;;2.86;77.22;101752.66;5051387;28;20300;-67
2022/03/19 06:51:30;;;;;;;12.37;10.43;;;;;;;2.98;77.26;101735.38;5041850;28;20622;-66
2022/03/19 06:53:57;;;;;;;11.03;9.50;;;;;;;3.22;76.22;101752.31;5038430;28;20293;-67
2022/03/19 06:56:25;;;;;;;9.47;8.43;;;;;;;3.32;75.21;101756.91;5045574;28;20220;-66
2022/03/19 06:58:52;;;;;;;10.90;9.80;;;;;;;3.47;73.46;101757.47;5047658;28;20215;-67
2022/03/19 07:01:19;;;;;;;10.77;9.67;;;;;;;3.46;73.31;101760.81;5049601;28;20296;-67
2022/03/19 07:03:47;;;;;;;10.37;8.93;;;;;;;3.56;73.96;101753.59;5041844;28;20283;-67
2022/03/19 07:06:15;;;;;;;10.13;9.30;;;;;;;3.61;72.42;101761.38;5048702;28;20211;-67
2022/03/19 07:08:42;;;;;;;16.00;10.17;;;;;;;3.67;72.63;101759.91;5047481;28;20197;-67
2022/03/19 07:11:09;;;;;;;12.90;9.20;;;;;;;3.81;71.68;101764.59;5040729;28;20673;-67
2022/03/19 07:13:37;;;;;;;10.17;9.17;;;;;;;3.77;70.43;101750.94;5042518;28;20297;-68
2022/03/19 07:16:06;;;;;;;12.73;9.47;;;;;;;3.89;70.46;101758.97;5049648;28;20651;-68
2022/03/19 07:18:33;;;;;;;10.10;9.03;;;;;;;3.89;70.03;101758.97;5042739;28;20658;-68
2022/03/19 07:21:00;;;;;;;10.90;8.43;;;;;;;3.97;69.46;101761.78;5036325;28;20201;-68
2022/03/19 07:23:27;;;;;;;11.90;8.93;;;;;;;4.09;67.37;101752.91;5045928;28;20232;-68
2022/03/19 07:25:54;;;;;;;10.13;8.40;;;;;;;4.19;66.90;101744.78;5040474;28;20219;-67
2022/03/19 07:28:21;;;;;;;8.73;7.73;;;;;;;4.26;63.97;101755.16;5042942;28;20275;-68
2022/03/19 07:30:50;;;;;;;8.77;7.97;;;;;;;4.29;63.86;101752.72;5044760;28;20198;-68
2022/03/19 07:33:17;;;;;;;8.70;7.67;;;;;;;4.36;63.10;101747.03;5044694;28;20228;-68
2022/03/19 07:35:44;;;;;;;10.97;8.40;;;;;;;4.61;64.44;101749.53;5047381;28;20294;-68
2022/03/19 07:38:12;;;;;;;8.30;7.60;;;;;;;4.76;60.71;101748.31;5047162;28;20224;-68
2022/03/19 07:43:25;;;;;;;8.47;7.63;;;;;;;5.10;56.50;101752.75;5042585;28;20228;-68
2022/03/19 07:45:53;;;;;;;9.17;8.37;;;;;;;5.12;54.96;101756.19;5042189;28;20219;-68
2022/03/19 07:48:21;;;;;;;7.67;7.10;;;;;;;5.04;52.54;101755.06;5044998;28;20208;-68
2022/03/19 07:50:48;;;;;;;17.33;12.57;;;;;;;5.13;53.83;101752.84;5042011;28;20562;-68
2022/03/19 07:53:15;;;;;;;14.77;11.07;;;;;;;5.14;54.18;101759.63;5048918;28;20696;-68
2022/03/19 07:55:42;;;;;;;9.70;8.83;;;;;;;5.09;52.88;101752.69;5045136;28;20196;-69
2022/03/19 07:58:10;;;;;;;24.43;13.47;;;;;;;5.01;53.12;101756.69;5063405;28;22191;-68
2022/03/19 08:00:37;;;;;;;21.67;13.40;;;;;;;5.06;52.10;101762.75;5061110;28;20200;-68
2022/03/19 08:03:05;;;;;;;17.03;13.77;;;;;;;5.19;51.58;101753.00;5061104;28;20239;-68
2022/03/19 08:05:32;;;;;;;10.90;8.97;;;;;;;5.04;49.87;101767.78;5059232;28;20238;-68
2022/03/19 08:07:59;;;;;;;9.10;8.30;;;;;;;5.09;50.89;101760.31;5062360;28;20208;-68
2022/03/19 08:10:26;;;;;;;6.27;5.77;;;;;;;5.13;49.76;101760.47;5063348;28;20197;-69
2022/03/19 08:13:03;;;;;;;9.90;7.00;;;;;;;5.10;48.72;101756.97;5061781;28;20207;-66
2022/03/19 08:15:30;;;;;;;7.77;7.03;;;;;;;5.14;49.10;101754.53;5059764;28;20204;-66
2022/03/19 08:17:57;;;;;;;7.77;7.17;;;;;;;5.28;51.04;101748.19;5063593;28;20201;-66
2022/03/19 08:20:25;;;;;;;16.43;9.67;;;;;;;5.32;49.22;101753.34;5057149;28;20744;-66
2022/03/19 08:22:52;;;;;;;11.03;7.23;;;;;;;5.45;49.47;101760.50;5060625;28;20288;-68
2022/03/19 08:25:19;;;;;;;7.70;7.13;;;;;;;5.33;48.44;101752.53;5059069;28;20196;-66
2022/03/19 08:27:46;;;;;;;8.30;7.70;;;;;;;5.26;49.50;101749.81;5062288;28;20207;-66
2022/03/19 08:30:13;;;;;;;8.20;7.53;;;;;;;5.20;49.96;101738.63;5054699;28;20196;-66
2022/03/19 08:32:40;;;;;;;9.73;8.83;;;;;;;5.23;50.33;101752.25;5057755;28;20653;-66
2022/03/19 08:35:08;;;;;;;9.23;7.83;;;;;;;5.17;50.13;101741.06;5058800;28;20279;-66
2022/03/19 08:37:37;;;;;;;10.80;9.40;;;;;;;5.13;50.97;101731.63;5058985;28;20566;-66
2022/03/19 08:40:16;;;;;;;13.03;9.60;;;;;;;5.23;50.89;101744.63;5054235;28;20307;-67
2022/03/19 08:42:44;;;;;;;9.60;8.43;;;;;;;5.23;51.10;101737.00;5056570;28;20208;-67
2022/03/19 08:45:11;;;;;;;10.63;9.53;;;;;;;5.16;50.04;101737.66;5058410;28;20200;-67
2022/03/19 08:47:38;;;;;;;10.67;8.87;;;;;;;5.16;50.47;101742.75;5060676;28;20295;-67
2022/03/19 08:50:06;;;;;;;11.83;10.00;;;;;;;5.01;49.33;101742.28;5061479;28;20196;-66
2022/03/19 08:52:33;;;;;;;12.37;9.53;;;;;;;5.05;51.05;101741.56;5063409;28;20215;-67
2022/03/19 08:55:02;;;;;;;13.23;8.73;;;;;;;5.04;50.27;101737.28;5052973;28;20676;-67
2022/03/19 08:57:29;;;;;;;15.70;10.23;;;;;;;5.10;49.99;101749.34;5062169;28;20319;-67
2022/03/19 08:59:56;;;;;;;11.33;8.47;;;;;;;5.11;50.44;101744.28;5065612;28;20223;-70
2022/03/19 09:02:23;;;;;;;12.40;11.15;;;;;;;5.42;50.60;101740.06;5059776;28;20526;-60
2022/03/19 09:04:50;;;;;;;9.00;8.13;;;;;;;5.62;49.33;101744.03;5067321;28;20208;-62
2022/03/19 09:07:18;;;;;;;13.07;10.57;;;;;;;5.72;48.21;101746.84;5060001;28;20592;-61
2022/03/19 09:09:45;;;;;;;9.37;8.47;;;;;;;5.68;49.95;101745.06;5061362;28;20611;-61
2022/03/19 09:12:13;;;;;;;8.90;8.10;;;;;;;5.87;49.53;101743.91;5064289;28;20196;-60
2022/03/19 09:14:40;;;;;;;18.37;10.53;;;;;;;5.84;46.06;101746.34;5055910;28;20219;-61
2022/03/19 09:17:07;;;;;;;73.23;29.37;;;;;;;5.84;46.86;101741.25;5064550;28;20576;-61
2022/03/19 09:19:35;;;;;;;17.27;12.03;;;;;;;5.86;46.64;101734.53;5064428;28;20315;-61
2022/03/19 09:22:02;;;;;;;7.10;6.57;;;;;;;5.94;46.24;101735.59;5056582;28;20211;-62
2022/03/19 09:24:29;;;;;;;6.50;6.00;;;;;;;6.12;45.15;101742.84;5065077;28;20632;-61
2022/03/19 09:26:56;;;;;;;6.97;6.47;;;;;;;6.16;46.04;101744.66;5064652;28;20231;-61
2022/03/19 09:29:24;;;;;;;8.90;6.97;;;;;;;6.26;44.19;101734.72;5060952;28;20196;-61
2022/03/19 09:31:51;;;;;;;9.93;8.90;;;;;;;6.32;44.69;101721.28;5059016;28;20200;-61
2022/03/19 09:34:18;;;;;;;10.50;8.30;;;;;;;6.49;45.11;101719.13;5069377;28;20291;-61
2022/03/19 09:36:46;;;;;;;7.73;7.20;;;;;;;6.49;44.81;101729.31;5060621;28;20284;-61
2022/03/19 09:39:15;;;;;;;8.10;7.43;;;;;;;6.53;43.89;101731.09;5050470;28;20223;-61
2022/03/19 09:41:43;;;;;;;8.23;7.47;;;;;;;6.66;44.02;101728.88;5068952;28;20201;-64
2022/03/19 09:44:11;;;;;;;10.53;9.53;;;;;;;6.39;43.83;101717.19;5066300;28;20246;-63
2022/03/19 09:46:41;;;;;;;9.33;8.40;;;;;;;6.28;44.04;101727.09;5074711;28;20199;-64
2022/03/19 09:49:10;;;;;;;17.87;10.10;;;;;;;6.09;45.33;101723.25;5074437;28;20225;-64
2022/03/19 09:51:40;;;;;;;9.53;8.43;;;;;;;6.22;46.32;101725.28;5057824;28;20200;-64
2022/03/19 09:54:08;;;;;;;7.60;6.97;;;;;;;6.38;45.93;101721.41;5055618;28;20291;-64
2022/03/19 09:56:37;;;;;;;198.07;47.73;;;;;;;6.55;45.64;101721.81;5061922;28;20219;-63
2022/03/19 09:59:06;;;;;;;262.03;63.37;;;;;;;6.58;45.38;101719.34;5065816;28;20223;-64
2022/03/19 10:01:33;;;;;;;20.57;12.30;;;;;;;6.75;45.28;101718.03;5058809;28;20231;-64
2022/03/19 10:04:07;;;;;;;36.40;14.77;;;;;;;6.89;44.87;101726.84;5058479;28;20200;-64
2022/03/19 10:09:21;;;;;;;8.63;7.17;;;;;;;6.97;43.62;101720.22;5053866;28;20203;-64
2022/03/19 10:11:50;;;;;;;17.50;10.20;;;;;;;6.94;44.95;101709.97;5053896;28;20251;-61
2022/03/19 10:14:22;;;;;;;30.17;14.03;;;;;;;7.24;51.33;101705.47;5058342;28;20212;-62
2022/03/19 10:16:51;;;;;;;8.37;7.70;;;;;;;7.48;46.34;101704.25;5062063;28;20207;-61
2022/03/19 10:19:19;;;;;;;10.57;7.90;;;;;;;7.77;46.61;101703.09;5057987;28;20226;-61
2022/03/19 10:21:47;;;;;;;9.57;7.80;;;;;;;7.66;43.92;101709.69;5072069;28;20216;-61
2022/03/19 10:24:25;;;;;;;29.37;15.70;;;;;;;7.64;44.54;101708.81;5068224;28;20196;-61
2022/03/19 10:26:53;;;;;;;7.27;6.67;;;;;;;7.78;44.60;101702.25;5071275;28;20653;-61
2022/03/19 10:29:29;;;;;;;9.33;8.60;;;;;;;7.94;43.73;101701.69;5073913;28;20196;-61
2022/03/19 10:32:02;;;;;;;8.20;7.30;;;;;;;8.06;43.72;101696.78;5061372;28;20200;-62
2022/03/19 10:34:33;;;;;;;10.20;9.27;;;;;;;8.11;42.96;101689.22;5069033;28;20207;-62
2022/03/19 10:37:00;;;;;;;12.20;9.07;;;;;;;8.11;43.44;101692.59;5055811;28;20242;-62
2022/03/19 10:39:29;;;;;;;9.67;8.57;;;;;;;7.92;44.08;101694.00;5053175;28;20255;-61
2022/03/19 10:41:57;;;;;;;7.60;7.03;;;;;;;7.85;42.23;101687.06;5051892;28;20283;-61
2022/03/19 10:44:27;;;;;;;8.07;6.87;;;;;;;7.80;41.73;101690.38;5056869;28;20625;-61
2022/03/19 10:46:55;;;;;;;13.60;10.73;;;;;;;7.74;42.42;101695.38;5062090;28;20232;-61
2022/03/19 10:49:24;;;;;;;12.10;11.03;;;;;;;7.80;42.09;101683.56;5065254;28;20683;-61
2022/03/19 10:51:54;;;;;;;8.47;7.67;;;;;;;7.84;41.60;101672.59;5065811;28;20295;-61
2022/03/19 10:54:22;;;;;;;7.53;6.77;;;;;;;8.02;42.68;101686.47;5056093;28;20204;-61
2022/03/19 10:56:50;;;;;;;9.33;7.73;;;;;;;7.97;42.25;101671.09;5066694;28;20220;-61
2022/03/19 10:59:18;;;;;;;8.40;7.70;;;;;;;7.76;42.56;101670.72;5053412;28;20225;-61
2022/03/19 11:01:48;;;;;;;11.03;9.90;;;;;;;7.51;42.25;101673.66;5053227;28;20192;-61
2022/03/19 11:04:16;;;;;;;10.70;9.67;;;;;;;7.21;42.30;101664.59;5040918;28;20204;-61
2022/03/19 11:06:45;;;;;;;11.63;10.50;;;;;;;7.02;43.10;101662.50;5042406;28;20288;-62
2022/03/19 11:09:15;;;;;;;7.43;6.90;;;;;;;7.09;42.90;101654.16;5040875;28;20276;-61
2022/03/19 11:11:49;;;;;;;8.50;7.80;;;;;;;7.12;42.27;101659.31;5044606;28;20189;-61
2022/03/19 11:14:23;;;;;;;10.17;8.37;;;;;;;7.30;43.03;101654.56;5044755;28;20205;-60
2022/03/19 11:17:23;;;;;;;8.00;7.30;;;;;;;7.40;44.67;101636.03;5039403;28;20225;-61
2022/03/19 11:19:40;;;;;;;10.87;8.07;;;;;;;7.19;43.37;101650.09;5038168;28;20227;-61
2022/03/19 11:22:07;;;;;;;7.13;6.63;;;;;;;7.25;44.60;101645.97;5044059;28;20699;-61
2022/03/19 11:24:44;;;;;;;11.93;7.37;;;;;;;7.16;43.70;101622.84;5040473;28;20206;-60
2022/03/19 11:27:11;;;;;;;7.27;6.57;;;;;;;7.23;44.79;101641.69;5033094;28;20284;-60
2022/03/19 11:29:38;;;;;;;7.30;6.50;;;;;;;7.20;45.30;101642.50;5048753;28;20205;-61
2022/03/19 11:32:06;;;;;;;8.43;7.65;;;;;;;7.05;45.29;101638.75;5036857;28;20522;-65
2022/03/19 11:34:48;;;;;;;9.80;7.63;;;;;;;7.36;45.35;101633.44;5039637;28;20252;-65
2022/03/19 11:37:15;;;;;;;7.53;6.93;;;;;;;7.54;44.66;101622.66;5043118;28;20303;-65
2022/03/19 11:40:02;;;;;;;6.97;6.37;;;;;;;7.39;43.19;101629.25;5041045;28;20232;-67
2022/03/19 11:42:30;;;;;;;6.97;6.43;;;;;;;7.55;44.41;101621.84;5041144;28;20233;-67
2022/03/19 11:45:08;;;;;;;18.73;9.40;;;;;;;7.77;46.43;101611.16;5040913;28;20615;-65